Wadhams, New York
Current Conditions -  °F | °C
As of 5:54 PM on Friday 28 Nov 2014 (Local Time) from KBTV Reporting Station
Overcast Overcast  
Wind Chill: 16°   Ceiling: 5000
Heat Index: 26°   Visibility: 10mi
Dew Point: 11°   Wind: 12mph
Humidity: 53%   Direction: 300°WNW
Pressure: 30.16"   Gusts: NA
Location:  44.2095°N, 73.4727°W
Report Text: KBTV 282254Z 30010KT 10SM FEW040 OVC050 M03/M12 A3016 RMK AO2 SLP218 T10331117
Loading
Personal Weather Stations






























Interactive Weather Map New forecast layout! Learn more

10-Day Weather Forecast

Advertisements
Track Severe Weather on mobile